createdAt,value
2022-09-10T00:03:39.642Z,1012.8619052620393
2022-09-10T00:10:05.303Z,1012.8221668825496
2022-09-10T00:16:31.448Z,1012.7769386107408
2022-09-10T00:24:54.216Z,1012.8609875386737
2022-09-10T00:31:19.555Z,1012.9385437969493
2022-09-10T00:37:45.257Z,1012.9179573341777
2022-09-10T00:44:11.126Z,1012.8902241704989
2022-09-10T00:50:36.858Z,1012.863029442231
2022-09-10T00:57:01.972Z,1012.810446458242
2022-09-10T01:03:27.024Z,1012.7699084820683
2022-09-10T01:09:53.122Z,1012.7751835012232
2022-09-10T01:16:18.813Z,1012.7698185578564
2022-09-10T01:22:44.659Z,1012.8398179964845
2022-09-10T01:34:14.967Z,1012.9331531461977
2022-09-10T01:43:01.802Z,1012.9572034313028
2022-09-10T01:49:27.985Z,1012.9517984062886
2022-09-10T01:55:54.482Z,1012.9187715722853
2022-09-10T02:02:20.034Z,1012.9382335893938
2022-09-10T02:08:46.071Z,1012.9377056963287
2022-09-10T02:15:11.731Z,1012.9094565753863
2022-09-10T02:21:36.750Z,1012.9122244428328
2022-09-10T02:28:10.880Z,1012.8883432807268
2022-09-10T02:40:19.765Z,1012.9376472385696
2022-09-10T02:46:44.688Z,1012.9513229410395
2022-09-10T02:56:12.425Z,1012.9799130534069
2022-09-10T03:05:02.892Z,1012.9618274318975
2022-09-10T03:11:28.514Z,1012.9887737436997
2022-09-10T03:17:54.599Z,1012.9866913647447
2022-09-10T03:24:29.348Z,1013.0147407477901
2022-09-10T03:30:56.171Z,1013.016871731922
2022-09-10T03:37:21.576Z,1013.0055568352705
2022-09-10T03:43:47.365Z,1013.0389800168513
2022-09-10T03:50:13.521Z,1013.0899640085242
2022-09-10T03:56:39.465Z,1013.0542834876771
2022-09-10T04:03:25.748Z,1013.0545559766008
2022-09-10T04:09:51.353Z,1013.0776015117119
2022-09-10T04:16:17.080Z,1013.0967550061014
2022-09-10T04:22:42.597Z,1013.1332764739617
2022-09-10T04:29:15.744Z,1013.1680833142452
2022-09-10T04:41:39.757Z,1013.2203530282588
2022-09-10T04:48:07.220Z,1013.2794920691836
2022-09-10T04:54:32.769Z,1013.2996730935214
2022-09-10T05:00:58.537Z,1013.3254244519607
2022-09-10T05:10:17.149Z,1013.3434017677048
2022-09-10T05:16:42.931Z,1013.3425800192939
2022-09-10T05:23:15.295Z,1013.3539411433535
2022-09-10T05:29:42.522Z,1013.4029286243057
2022-09-10T05:36:09.566Z,1013.3879708203543
2022-09-10T05:42:35.625Z,1013.3970597862649
2022-09-10T05:51:22.020Z,1013.4402891025967
2022-09-10T06:03:18.498Z,1013.4812180875184
2022-09-10T06:09:44.586Z,1013.5185557436782
2022-09-10T06:16:10.926Z,1013.5253820534205
2022-09-10T06:22:38.436Z,1013.5077117971286
2022-09-10T06:32:02.053Z,1013.577218289563
2022-09-10T06:38:30.478Z,1013.575954975674
2022-09-10T06:45:32.643Z,1013.6306734401803
2022-09-10T06:51:58.419Z,1013.662323517684
2022-09-10T07:04:52.576Z,1013.8269963324597
2022-09-10T07:12:41.844Z,1013.9105144461452
2022-09-10T07:19:13.120Z,1013.9239662898008
2022-09-10T07:25:54.608Z,1013.958713169554
2022-09-10T07:32:19.810Z,1013.9928866833282
2022-09-10T07:38:45.373Z,1014.0481203312665
2022-09-10T07:51:51.130Z,1014.1608945725585
2022-09-10T07:58:18.739Z,1014.1966329459514
2022-09-10T08:04:45.310Z,1014.2531292951842
2022-09-10T08:11:12.496Z,1014.3075122760779
2022-09-10T08:17:39.102Z,1014.3319656950722
2022-09-10T08:24:14.708Z,1014.3946451505899
2022-09-10T08:30:40.481Z,1014.4688757597218
2022-09-10T08:42:57.494Z,1014.5875626419705
2022-09-10T08:49:23.677Z,1014.6306693643854
2022-09-10T08:55:52.928Z,1014.657641044731
2022-09-10T09:22:00.336Z,1014.7925019289327
2022-09-10T09:28:37.138Z,1014.8154423623026
2022-09-10T09:35:03.237Z,1014.8195285038881
2022-09-10T09:48:36.814Z,1014.8874351188217
2022-09-10T09:59:15.197Z,1014.89909563004
2022-09-10T10:05:40.483Z,1014.8767710189634
2022-09-10T10:12:52.561Z,1014.8478255268766
2022-09-10T10:19:17.864Z,1014.7929114510911
2022-09-10T10:31:25.124Z,1014.7880562679799
2022-09-10T10:37:56.355Z,1014.7785046710975
2022-09-10T10:44:21.832Z,1014.8185348165845
2022-09-10T10:56:20.571Z,1014.8244877366145
2022-09-10T11:07:10.022Z,1014.7446002068324
2022-09-10T11:13:36.697Z,1014.7323083276377
2022-09-10T11:20:24.222Z,1014.6670835353323
2022-09-10T11:27:07.696Z,1014.6261779082173
2022-09-10T11:37:45.997Z,1014.5852379517628
2022-09-10T11:44:13.823Z,1014.5857834305866
2022-09-10T11:50:43.708Z,1014.5790035098964
2022-09-10T11:57:17.286Z,1014.5602929245048
2022-09-10T12:03:49.375Z,1014.5187722904626
2022-09-10T12:10:17.042Z,1014.4794352602363
2022-09-10T12:16:42.764Z,1014.4649694044975
2022-09-10T12:23:10.239Z,1014.437288525701
2022-09-10T12:29:54.551Z,1014.4340768826545
2022-09-10T12:39:59.354Z,1014.471256668921
2022-09-10T12:46:23.910Z,1014.4686295730622
2022-09-10T12:52:48.388Z,1014.4973604043893
2022-09-10T12:59:15.383Z,1014.4569923926583
2022-09-10T13:06:35.160Z,1014.4355508984825
2022-09-10T13:12:57.856Z,1014.4120488883796
2022-09-10T13:19:21.092Z,1014.407856240087
2022-09-10T13:33:43.027Z,1014.3530566760838
2022-09-10T13:40:05.825Z,1014.3576882791305
2022-09-10T13:46:29.847Z,1014.3585909097471
2022-09-10T13:55:01.579Z,1014.3496871695784
2022-09-10T14:01:24.974Z,1014.3883868758958
2022-09-10T14:07:47.806Z,1014.3821078857974
2022-09-10T14:14:10.729Z,1014.3834660729486
2022-09-10T14:20:31.784Z,1014.4529666609752
2022-09-10T14:36:32.375Z,1014.5548895534541
2022-09-10T14:42:54.471Z,1014.6153597217293
2022-09-10T14:49:15.939Z,1014.6044766687763
2022-09-10T14:56:04.256Z,1014.576215491244
2022-09-10T15:02:27.560Z,1014.5943718060622
2022-09-10T15:08:50.669Z,1014.6555865694993
2022-09-10T15:15:17.431Z,1014.6880434199618
2022-09-10T15:21:41.542Z,1014.7599972894709
2022-09-10T15:33:42.758Z,1014.8303729384406
2022-09-10T15:40:06.282Z,1014.850640659801
2022-09-10T15:55:11.155Z,1014.815675671522
2022-09-10T16:01:40.719Z,1014.7433021535322
2022-09-10T16:08:07.102Z,1014.7279739199955
2022-09-10T16:14:32.962Z,1014.8162089006313
2022-09-10T16:21:53.179Z,1014.8544612924816
2022-09-10T16:28:16.164Z,1014.9340895368338
2022-09-10T16:34:39.058Z,1015.0047753524801
2022-09-10T16:48:39.154Z,1015.1679908093158
2022-09-10T16:55:02.071Z,1015.199094338363
2022-09-10T17:09:02.184Z,1015.3600606228872
2022-09-10T17:18:36.078Z,1015.4248195218886
2022-09-10T17:25:17.672Z,1015.4714066681715
2022-09-10T17:31:44.212Z,1015.5936486795949
2022-09-10T17:38:10.476Z,1015.6797357698315
2022-09-10T17:44:36.097Z,1015.8029602002185
2022-09-10T17:51:26.347Z,1015.8460130634555
2022-09-10T17:58:39.487Z,1015.8678224575493
2022-09-10T18:11:17.101Z,1015.9578215929675
2022-09-10T18:22:03.851Z,1016.0627115329237
2022-09-10T18:28:37.991Z,1016.1807959078586
2022-09-10T18:35:04.597Z,1016.2856908015816
2022-09-10T18:41:31.110Z,1016.3534329435121
2022-09-10T18:47:58.944Z,1016.4336008074449
2022-09-10T18:54:26.283Z,1016.4976544008955
2022-09-10T19:00:58.389Z,1016.5189080096433
2022-09-10T19:07:33.288Z,1016.5386487624489
2022-09-10T19:14:11.848Z,1016.7037704724511
2022-09-10T19:20:48.032Z,1016.8272066470861
2022-09-10T19:27:46.753Z,1016.896951433995
2022-09-10T19:38:05.757Z,1016.9530992427294
2022-09-10T19:45:43.367Z,1016.9937063665236
2022-09-10T19:52:17.453Z,1017.020077144621
2022-09-10T19:58:55.983Z,1017.1716767787576
2022-09-10T20:05:24.362Z,1017.2686934350592
2022-09-10T20:11:53.588Z,1017.2569808792911
2022-09-10T20:18:24.182Z,1017.346532596658
2022-09-10T20:31:09.683Z,1017.4483488331468
2022-09-10T20:37:43.685Z,1017.4254135356264
2022-09-10T20:44:18.577Z,1017.3551697170869
2022-09-10T20:50:56.233Z,1017.3263072062829
2022-09-10T21:02:03.851Z,1017.3548852851601
2022-09-10T21:08:39.912Z,1017.3673693740263
2022-09-10T21:15:21.871Z,1017.3465021544441
2022-09-10T21:32:02.533Z,1017.3408728248409
2022-09-10T21:38:43.503Z,1017.3596829554182
2022-09-10T21:45:16.613Z,1017.4658335713649
2022-09-10T21:51:50.859Z,1017.5029354470939
2022-09-10T22:01:43.888Z,1017.5442426823378
2022-09-10T22:08:16.953Z,1017.5850217967243
2022-09-10T22:19:28.373Z,1017.7001120820778
2022-09-10T22:30:28.022Z,1017.7714045772852
2022-09-10T22:38:37.147Z,1017.8227268986491
2022-09-10T22:45:02.476Z,1017.9650334513366
2022-09-10T22:53:55.355Z,1018.0046506706148
2022-09-10T23:00:20.793Z,1018.025145520928
2022-09-10T23:06:46.729Z,1018.0663198290774
2022-09-10T23:13:12.882Z,1018.1670202473039
2022-09-10T23:23:16.825Z,1018.3375103792373
2022-09-10T23:29:43.810Z,1018.382641606662
2022-09-10T23:36:10.251Z,1018.4147492412551
2022-09-10T23:43:23.219Z,1018.4642214520578
2022-09-10T23:54:17.858Z,1018.6052363719647
